Terminal Aerodrome Forecast
Issued by NWS

Current Version | Previous Version | Text Only | Print | Product List | Glossary On
Versions: 1 2 3 4 5 6 7 8 9 10 11 12 13 14 15 16 17 18 19 20 21 22 23 24 25 26 27
000
FTUS42 TJSJ 051134
TAFJBQ
TAF
TJBQ 051134Z 0512/0612 10006KT P6SM FEW030 SCT050
     FM051400 07018KT P6SM FEW025 SCT050
     FM051930 09012KT P6SM VCSH SCT022 SCT045
     FM052300 09006KT P6SM FEW025
     AMD NOT SKED 0602/0611=

USA.gov is the U.S. government's official web portal to all federal, state and local government web resources and services.